Time;durP1;ratioP1;P1;durP2;ratioP2;P2;SDS_P1;SDS_P2;PMS_P1;PMS_P2;Temp;Humidity;BMP_temperature;BMP_pressure;BME280_temperature;BME280_humidity;BME280_pressure;Samples;Min_cycle;Max_cycle;Signal;HPM_P1;HPM_P2
2023/05/08 00:01:10;;;;;;;15.65;12.23;;;7.90;99.90;;;7.59;100.00;101581.59;5091800;28;20039;-84
2023/05/08 00:03:36;;;;;;;15.70;11.80;;;7.90;99.90;;;7.56;100.00;101581.94;5090080;28;20036;-83
2023/05/08 00:06:05;;;;;;;16.27;11.77;;;7.80;99.90;;;7.54;100.00;101580.41;5057210;28;20037;-83
2023/05/08 00:08:32;;;;;;;17.35;12.65;;;7.80;99.90;;;7.47;100.00;101575.69;5091066;28;20364;-82
2023/05/08 00:10:57;;;;;;;15.95;12.18;;;7.70;99.90;;;7.37;100.00;101568.75;5089979;28;20044;-82
2023/05/08 00:13:23;;;;;;;16.05;12.35;;;7.70;99.90;;;7.41;100.00;101584.53;5062485;28;20028;-83
2023/05/08 00:15:49;;;;;;;16.15;12.77;;;7.70;99.90;;;7.38;100.00;101578.59;5091073;28;20423;-84
2023/05/08 00:18:15;;;;;;;17.52;12.90;;;7.70;99.90;;;7.34;100.00;101588.97;5062441;28;20068;-83
2023/05/08 00:20:41;;;;;;;16.90;13.35;;;7.60;99.90;;;7.24;100.00;101570.13;5091504;28;20146;-82
2023/05/08 00:23:07;;;;;;;17.90;13.05;;;7.50;99.90;;;7.23;100.00;101579.31;5090575;28;20044;-83
2023/05/08 00:25:33;;;;;;;19.70;13.75;;;7.50;99.90;;;7.24;100.00;101583.72;5091386;28;20043;-83
2023/05/08 00:27:59;;;;;;;17.00;12.80;;;7.50;99.90;;;7.14;100.00;101569.47;5090534;28;20048;-83
2023/05/08 00:30:25;;;;;;;17.75;13.45;;;7.50;99.90;;;7.14;100.00;101570.31;5069050;28;20147;-83
2023/05/08 00:32:51;;;;;;;17.95;13.10;;;7.40;99.90;;;7.14;100.00;101564.03;5068891;28;20028;-82
2023/05/08 00:35:18;;;;;;;16.73;13.52;;;7.40;99.90;;;7.11;100.00;101573.38;5063778;28;20085;-83
2023/05/08 00:37:44;;;;;;;17.10;13.35;;;7.40;99.90;;;7.11;100.00;101572.50;5088422;28;20119;-83
2023/05/08 00:40:10;;;;;;;16.15;13.27;;;7.40;99.90;;;7.16;100.00;101586.41;5056264;28;20037;-83
2023/05/08 00:42:37;;;;;;;17.67;13.00;;;7.40;99.90;;;7.09;100.00;101578.13;5089916;28;20388;-82
2023/05/08 00:45:03;;;;;;;17.73;13.05;;;7.40;99.90;;;7.05;100.00;101582.22;5088714;28;20028;-84
2023/05/08 00:47:31;;;;;;;16.88;13.02;;;7.40;99.90;;;7.15;100.00;101593.72;5059601;28;20032;-83
2023/05/08 00:49:58;;;;;;;17.92;12.85;;;7.40;99.90;;;7.06;100.00;101567.63;5087597;28;20094;-83
2023/05/08 00:52:28;;;;;;;16.25;12.77;;;7.50;99.90;;;7.17;100.00;101590.84;5089200;28;20111;-84
2023/05/08 00:54:54;;;;;;;17.00;12.45;;;7.50;99.90;;;7.14;100.00;101586.59;5089587;28;20062;-83
2023/05/08 00:57:22;;;;;;;16.23;12.65;;;7.50;99.90;;;7.16;100.00;101583.69;5070645;28;20116;-83
2023/05/08 00:59:50;;;;;;;16.42;13.00;;;7.50;99.90;;;7.07;100.00;101580.16;5059797;28;20037;-83
2023/05/08 01:02:16;;;;;;;15.82;12.25;;;7.40;99.90;;;7.03;100.00;101576.09;5061023;28;20074;-83
2023/05/08 01:04:45;;;;;;;15.23;12.15;;;7.30;99.90;;;7.05;100.00;101585.75;5089195;28;20028;-82
2023/05/08 01:07:11;;;;;;;16.45;12.80;;;7.30;99.90;;;6.91;100.00;101571.00;5084190;28;20040;-83
2023/05/08 01:09:36;;;;;;;17.17;12.98;;;7.20;99.90;;;6.93;100.00;101581.69;5089147;28;20040;-82
2023/05/08 01:12:19;;;;;;;18.58;13.60;;;7.20;99.90;;;6.92;100.00;101577.28;5060095;28;20106;-82
2023/05/08 01:15:11;;;;;;;17.95;12.50;;;7.20;99.90;;;6.91;100.00;101575.59;5083899;28;20032;-82
2023/05/08 01:18:27;;;;;;;17.38;12.93;;;7.10;99.90;;;6.88;100.00;101571.34;5088745;28;20518;-82
2023/05/08 01:21:22;;;;;;;16.88;12.40;;;7.10;99.90;;;6.86;100.00;101565.25;5057954;28;20032;-82
2023/05/08 01:24:38;;;;;;;17.05;12.93;;;7.10;99.90;;;6.91;100.00;101573.72;5055959;28;20511;-83
2023/05/08 01:30:44;;;;;;;16.45;12.52;;;7.10;99.90;;;6.80;100.00;101571.34;5074347;27;20870;-84
2023/05/08 01:33:23;;;;;;;15.50;11.95;;;7.10;99.90;;;6.76;100.00;101562.69;5081788;28;20033;-83
2023/05/08 01:35:59;;;;;;;18.17;12.50;;;7.10;99.90;;;6.71;100.00;101558.78;5068108;28;20075;-83
2023/05/08 01:38:51;;;;;;;17.85;12.82;;;7.00;99.90;;;6.74;100.00;101543.03;5077724;28;20094;-83
2023/05/08 01:41:29;;;;;;;14.90;11.90;;;7.00;99.90;;;6.64;100.00;101553.22;5068027;28;20035;-82
2023/05/08 01:44:12;;;;;;;17.40;12.02;;;7.00;99.90;;;6.66;100.00;101563.88;5069786;28;20029;-83
2023/05/08 01:46:38;;;;;;;16.40;12.23;;;7.00;99.90;;;6.64;100.00;101563.19;5067831;28;20134;-83
2023/05/08 01:49:19;;;;;;;16.45;12.25;;;7.00;99.90;;;6.57;100.00;101553.03;5077869;28;20128;-83
2023/05/08 01:51:55;;;;;;;15.75;11.68;;;7.00;99.90;;;6.62;100.00;101566.94;5092569;28;20028;-83
2023/05/08 01:54:27;;;;;;;16.98;12.30;;;6.90;99.90;;;6.59;100.00;101574.53;5074024;28;20075;-83
2023/05/08 01:56:58;;;;;;;15.43;11.48;;;6.90;99.90;;;6.54;100.00;101580.50;5079644;28;20472;-83
2023/05/08 01:59:27;;;;;;;16.77;11.80;;;6.90;99.90;;;6.41;100.00;101564.72;5082530;28;20044;-83
2023/05/08 02:01:57;;;;;;;16.00;12.05;;;6.80;99.90;;;6.47;100.00;101574.88;5074560;28;20037;-83
2023/05/08 02:04:25;;;;;;;15.50;12.10;;;6.80;99.90;;;6.48;100.00;101568.44;5057502;28;20051;-83
2023/05/08 02:06:53;;;;;;;16.63;11.93;;;6.80;99.90;;;6.46;100.00;101562.34;5069126;28;20055;-83
2023/05/08 02:09:21;;;;;;;;;;;6.80;99.90;;;6.47;100.00;101560.47;5069596;28;20374;-83
2023/05/08 02:11:49;;;;;;;17.10;11.32;;;6.80;99.90;;;6.49;100.00;101563.84;5074015;28;19928;-83
2023/05/08 02:14:19;;;;;;;15.80;11.35;;;6.80;99.90;;;6.48;100.00;101564.88;5081135;28;20036;-83
2023/05/08 02:16:50;;;;;;;15.15;11.90;;;6.80;99.90;;;6.43;100.00;101564.53;5084347;28;20032;-84
2023/05/08 02:19:17;;;;;;;14.45;11.45;;;6.80;99.90;;;6.38;100.00;101573.19;5076523;28;20040;-83
2023/05/08 02:21:45;;;;;;;16.25;12.13;;;6.70;99.90;;;6.30;100.00;101555.03;5082967;28;20039;-83
2023/05/08 02:24:13;;;;;;;15.32;11.98;;;6.70;99.90;;;6.24;100.00;101557.56;5074307;28;20044;-83
2023/05/08 02:26:41;;;;;;;16.42;12.45;;;6.60;99.90;;;6.31;100.00;101574.84;5067776;28;20507;-83
2023/05/08 02:29:08;;;;;;;15.85;11.80;;;6.50;99.90;;;6.29;100.00;101566.03;5068672;28;20484;-82
2023/05/08 02:31:36;;;;;;;16.10;12.30;;;6.50;99.90;;;6.20;100.00;101559.72;5074950;28;20528;-83
2023/05/08 02:34:04;;;;;;;17.10;11.70;;;6.50;99.90;;;6.23;100.00;101575.66;5068731;28;20068;-83
2023/05/08 02:36:31;;;;;;;15.95;12.05;;;6.50;99.90;;;6.16;100.00;101561.06;5076227;28;20037;-82
2023/05/08 02:38:59;;;;;;;17.00;12.45;;;6.50;99.90;;;6.13;100.00;101570.41;5088760;28;20090;-82
2023/05/08 02:41:31;;;;;;;16.00;12.10;;;6.50;99.90;;;6.16;100.00;101575.50;5061562;28;20029;-84
2023/05/08 02:43:58;;;;;;;17.52;12.50;;;6.50;99.90;;;6.02;100.00;101551.72;5055745;28;20041;-83
2023/05/08 02:46:36;;;;;;;17.67;12.20;;;6.40;99.90;;;6.10;100.00;101578.88;5060531;28;20124;-83
2023/05/08 02:49:17;;;;;;;17.83;13.43;;;6.40;99.90;;;6.07;100.00;101579.16;5090146;28;20037;-83
2023/05/08 02:51:56;;;;;;;18.70;13.32;;;6.30;99.90;;;6.01;100.00;101578.00;5056970;28;20071;-83
2023/05/08 02:55:00;;;;;;;18.92;14.40;;;6.30;99.90;;;6.00;100.00;101583.53;5081350;28;20033;-82
2023/05/08 02:57:41;;;;;;;21.02;13.93;;;6.30;99.90;;;5.97;100.00;101583.84;5070413;28;20047;-82
2023/05/08 03:00:13;;;;;;;18.40;14.02;;;6.20;99.90;;;5.98;100.00;101586.41;5060814;28;20047;-83
2023/05/08 03:02:46;;;;;;;19.80;14.95;;;6.20;99.90;;;5.96;100.00;101580.28;5055126;28;20028;-82
2023/05/08 03:05:23;;;;;;;22.23;14.95;;;6.20;99.90;;;5.78;100.00;101557.88;5053273;28;20495;-83
2023/05/08 03:07:56;;;;;;;21.67;15.23;;;6.20;99.90;;;5.87;100.00;101568.59;5053629;28;20037;-83
2023/05/08 03:10:30;;;;;;;20.13;14.82;;;6.20;99.90;;;5.83;100.00;101563.66;5053977;28;20029;-82
2023/05/08 03:12:58;;;;;;;20.70;15.40;;;6.20;99.90;;;5.83;100.00;101556.34;5066204;28;20028;-83
2023/05/08 03:15:40;;;;;;;20.05;15.40;;;6.20;99.90;;;5.76;100.00;101567.03;5053423;28;20029;-83
2023/05/08 03:18:12;;;;;;;21.20;15.98;;;6.10;99.90;;;5.75;100.00;101581.56;5053395;28;20571;-84
2023/05/08 03:20:44;;;;;;;23.38;15.75;;;6.10;99.90;;;5.70;100.00;101577.63;5057280;28;20039;-84
2023/05/08 03:23:14;;;;;;;22.15;15.23;;;6.10;99.90;;;5.70;100.00;101570.38;5056649;28;20028;-83
2023/05/08 03:25:42;;;;;;;23.02;16.70;;;6.10;99.90;;;5.69;100.00;101570.53;5060596;28;20341;-82
2023/05/08 03:28:10;;;;;;;25.20;16.13;;;6.00;99.90;;;5.66;100.00;101558.16;5058347;28;20107;-82
2023/05/08 03:30:40;;;;;;;26.10;16.90;;;6.00;99.90;;;5.72;100.00;101570.19;5063617;28;20037;-81
2023/05/08 03:33:11;;;;;;;22.15;15.88;;;6.00;99.90;;;5.72;100.00;101562.94;5064079;28;20025;-81
2023/05/08 03:35:38;;;;;;;21.80;16.50;;;6.10;99.90;;;5.74;100.00;101551.94;5053966;28;20032;-84
2023/05/08 03:38:06;;;;;;;23.95;16.55;;;6.10;99.90;;;5.77;100.00;101559.72;5057084;28;20051;-80
2023/05/08 03:40:37;;;;;;;20.77;15.23;;;6.10;99.90;;;5.75;100.00;101559.91;5052925;28;20029;-81
2023/05/08 03:43:07;;;;;;;20.88;14.88;;;6.10;99.90;;;5.83;100.00;101560.94;5066865;28;20128;-81
2023/05/08 03:45:39;;;;;;;22.23;15.27;;;6.10;99.90;;;5.76;100.00;101550.78;5069973;28;20036;-80
2023/05/08 03:48:07;;;;;;;21.02;15.40;;;6.10;99.90;;;5.87;100.00;101562.31;5049492;28;20510;-81
2023/05/08 03:50:37;;;;;;;20.63;15.13;;;6.20;99.90;;;5.85;100.00;101554.38;5095619;28;20089;-79
2023/05/08 03:53:07;;;;;;;19.73;14.75;;;6.20;99.90;;;5.88;100.00;101559.44;5063555;28;20075;-81
2023/05/08 03:55:36;;;;;;;19.27;14.88;;;6.20;99.90;;;5.87;100.00;101548.75;5060597;28;20037;-80
2023/05/08 03:58:30;;;;;;;20.17;15.35;;;6.20;99.90;;;5.90;100.00;101552.00;5069506;28;20086;-79
2023/05/08 04:01:17;;;;;;;20.95;14.77;;;6.20;99.90;;;5.95;100.00;101550.66;5053577;28;20064;-79
2023/05/08 04:04:02;;;;;;;21.45;14.85;;;6.30;99.90;;;6.01;100.00;101547.31;5055893;28;20029;-80
2023/05/08 04:07:09;;;;;;;19.40;14.25;;;6.40;99.90;;;6.12;100.00;101555.16;5067521;28;20075;-79
2023/05/08 04:10:08;;;;;;;18.45;13.35;;;6.40;99.90;;;6.13;100.00;101553.28;5091406;28;20032;-80
2023/05/08 04:13:03;;;;;;;19.15;13.93;;;6.50;99.90;;;6.24;100.00;101560.25;5059762;28;20028;-79
2023/05/08 04:15:42;;;;;;;18.70;14.15;;;6.60;99.90;;;6.28;100.00;101559.78;5055580;28;20043;-79
2023/05/08 04:18:15;;;;;;;20.40;14.30;;;6.60;99.90;;;6.33;100.00;101554.69;5076527;28;20051;-79
2023/05/08 04:20:46;;;;;;;19.10;14.18;;;6.70;99.90;;;6.30;100.00;101546.03;5065312;28;20388;-79
2023/05/08 04:23:20;;;;;;;17.45;13.02;;;6.70;99.90;;;6.47;100.00;101563.16;5042615;28;20111;-79
2023/05/08 04:25:51;;;;;;;18.05;13.73;;;6.70;99.90;;;6.47;100.00;101553.19;5057999;28;20041;-77
2023/05/08 04:28:18;;;;;;;19.02;13.30;;;6.80;99.90;;;6.55;100.00;101543.38;5051643;28;20049;-78
2023/05/08 04:30:45;;;;;;;18.17;13.98;;;6.90;99.90;;;6.73;100.00;101557.63;5060916;28;20079;-78
2023/05/08 04:33:13;;;;;;;15.48;12.65;;;7.00;99.90;;;6.82;100.00;101560.31;5052439;28;20481;-78
2023/05/08 04:35:39;;;;;;;;;;;7.00;99.90;;;6.87;100.00;101555.22;5055452;28;20075;-78
2023/05/08 04:38:05;;;;;;;17.38;12.75;;;7.10;99.90;;;6.87;100.00;101563.38;5046693;28;19927;-78
2023/05/08 04:40:31;;;;;;;18.65;13.02;;;7.10;99.90;;;6.85;100.00;101551.84;5069876;28;20047;-78
2023/05/08 04:42:57;;;;;;;16.15;11.95;;;7.20;99.90;;;6.98;100.00;101549.47;5089479;28;20037;-78
2023/05/08 04:45:23;;;;;;;17.92;13.30;;;7.30;99.90;;;6.83;100.00;101545.75;5063875;28;20079;-78
2023/05/08 04:47:49;;;;;;;16.95;12.85;;;7.30;99.90;;;6.86;100.00;101548.97;5071068;28;20028;-79
2023/05/08 04:50:15;;;;;;;16.50;12.30;;;7.30;99.90;;;6.89;100.00;101572.19;5069472;28;20373;-79
2023/05/08 04:52:41;;;;;;;16.48;12.82;;;7.30;99.90;;;6.89;100.00;101577.59;5060127;28;20029;-79
2023/05/08 04:55:08;;;;;;;18.40;13.13;;;7.30;99.90;;;6.98;100.00;101571.19;5053274;28;20368;-78
2023/05/08 04:57:37;;;;;;;16.48;13.00;;;7.30;99.90;;;6.95;100.00;101571.53;5054402;28;20063;-78
2023/05/08 05:00:05;;;;;;;17.35;13.07;;;7.30;99.90;;;7.03;100.00;101574.22;5052724;28;20037;-79
2023/05/08 05:02:32;;;;;;;15.60;12.38;;;7.40;99.90;;;7.24;100.00;101583.72;5067547;28;20025;-78
2023/05/08 05:05:00;;;;;;;17.10;12.57;;;7.50;99.90;;;7.33;100.00;101579.94;5056122;28;20043;-78
2023/05/08 05:07:26;;;;;;;19.70;12.43;;;7.60;99.90;;;7.43;100.00;101590.63;5065521;28;20064;-80
2023/05/08 05:09:52;;;;;;;16.23;12.45;;;7.70;99.90;;;7.56;100.00;101590.09;5056834;28;20041;-79
2023/05/08 05:12:18;;;;;;;15.50;12.15;;;7.70;99.90;;;7.60;100.00;101588.72;5056960;28;20037;-79
2023/05/08 05:14:44;;;;;;;16.08;12.52;;;7.80;99.90;;;7.70;100.00;101580.38;5054399;28;20044;-80
2023/05/08 05:17:10;;;;;;;17.52;12.00;;;7.90;99.90;;;7.64;100.00;101567.50;5052211;28;20033;-79
2023/05/08 05:19:35;;;;;;;16.48;12.27;;;8.00;99.90;;;7.84;100.00;101586.94;5055439;28;20029;-79
2023/05/08 05:22:01;;;;;;;14.55;11.32;;;8.10;99.90;;;7.80;100.00;101580.16;5051701;28;20484;-79
2023/05/08 05:24:28;;;;;;;16.38;12.55;;;8.20;99.90;;;7.77;100.00;101550.66;5070544;28;20039;-79
2023/05/08 05:26:56;;;;;;;14.60;11.85;;;8.30;99.90;;;7.85;100.00;101583.19;5060462;28;20051;-80
2023/05/08 05:29:22;;;;;;;19.23;11.93;;;8.30;99.90;;;7.96;100.00;101571.09;5065012;28;20493;-80
2023/05/08 05:31:48;;;;;;;16.08;11.98;;;8.30;99.90;;;7.99;100.00;101576.19;5072244;28;20040;-79
2023/05/08 05:34:14;;;;;;;13.80;11.18;;;8.40;99.90;;;8.05;100.00;101582.78;5057134;28;20033;-80
2023/05/08 05:36:40;;;;;;;13.82;10.77;;;8.40;99.90;;;8.05;100.00;101569.19;5057734;28;20412;-80
2023/05/08 05:39:06;;;;;;;14.48;11.05;;;8.40;99.90;;;8.20;100.00;101577.44;5052152;28;20056;-80
2023/05/08 05:41:33;;;;;;;13.77;11.10;;;8.50;99.90;;;8.29;100.00;101575.53;5056616;28;20029;-80
2023/05/08 05:43:59;;;;;;;15.52;10.98;;;8.60;99.90;;;8.20;100.00;101581.00;5064267;28;20040;-80
2023/05/08 05:46:31;;;;;;;13.73;11.25;;;8.60;99.90;;;8.34;100.00;101576.66;5056999;28;20033;-79
2023/05/08 05:49:00;;;;;;;13.48;10.70;;;8.70;99.90;;;8.34;100.00;101576.66;5050244;28;20131;-80
2023/05/08 05:51:26;;;;;;;17.08;11.45;;;8.70;99.90;;;8.54;100.00;101578.97;5060741;28;20025;-81
2023/05/08 05:53:52;;;;;;;14.45;10.15;;;8.80;99.90;;;8.56;100.00;101576.91;5064576;28;20112;-80
2023/05/08 05:56:18;;;;;;;11.60;10.00;;;8.90;99.90;;;8.57;100.00;101575.88;5057656;28;20136;-80
2023/05/08 05:58:44;;;;;;;12.98;10.27;;;8.90;99.90;;;8.78;100.00;101579.81;5066876;28;20045;-79
2023/05/08 06:01:10;;;;;;;14.15;10.20;;;9.10;99.90;;;8.92;100.00;101589.06;5052276;28;20484;-80
2023/05/08 06:03:36;;;;;;;13.05;10.15;;;9.20;99.90;;;9.01;100.00;101584.38;5060994;28;20116;-82
2023/05/08 06:06:03;;;;;;;12.63;10.20;;;9.30;99.90;;;9.08;100.00;101582.63;5055093;28;20516;-81
2023/05/08 06:08:29;;;;;;;13.35;10.35;;;9.40;99.90;;;9.16;100.00;101573.53;5054110;28;20049;-81
2023/05/08 06:10:55;;;;;;;14.18;10.52;;;9.50;99.90;;;9.17;100.00;101576.09;5050516;28;20040;-81
2023/05/08 06:13:21;;;;;;;11.82;9.98;;;9.60;99.90;;;9.18;100.00;101577.78;5075696;28;20028;-81
2023/05/08 06:15:49;;;;;;;12.80;10.55;;;9.60;99.90;;;9.41;100.00;101581.47;5050665;28;20494;-81
2023/05/08 06:18:15;;;;;;;11.77;10.00;;;9.70;99.90;;;9.28;100.00;101565.75;5074380;28;20396;-82
2023/05/08 06:20:41;;;;;;;13.65;10.40;;;9.70;99.90;;;9.34;100.00;101565.00;5070602;28;20036;-81
2023/05/08 06:23:07;;;;;;;13.18;10.02;;;9.70;99.90;;;9.40;100.00;101579.78;5073616;28;20048;-81
2023/05/08 06:25:33;;;;;;;13.68;10.07;;;9.80;99.90;;;9.58;100.00;101582.13;5055569;28;20029;-82
2023/05/08 06:27:59;;;;;;;14.80;10.60;;;9.90;99.90;;;9.53;100.00;101563.59;5064724;28;20052;-81
2023/05/08 06:30:24;;;;;;;14.30;9.82;;;10.00;99.90;;;9.68;100.00;101579.13;5062053;28;20396;-80
2023/05/08 06:32:50;;;;;;;13.75;10.20;;;10.10;99.90;;;9.74;100.00;101586.53;5056659;28;20033;-82
2023/05/08 06:35:19;;;;;;;14.30;10.82;;;10.20;99.90;;;9.80;100.00;101591.22;5061638;28;20048;-82
2023/05/08 06:37:45;;;;;;;12.63;10.45;;;10.20;99.90;;;10.02;100.00;101588.59;5056216;28;20104;-82
2023/05/08 06:40:12;;;;;;;13.50;9.77;;;10.30;99.90;;;10.12;100.00;101580.13;5077073;28;20033;-83
2023/05/08 06:42:39;;;;;;;11.80;9.70;;;10.50;99.90;;;10.18;100.00;101587.53;5051357;28;20506;-81
2023/05/08 06:45:07;;;;;;;13.18;9.85;;;10.50;99.90;;;10.26;100.00;101583.84;5062021;28;20033;-82
2023/05/08 06:47:33;;;;;;;13.48;9.50;;;10.60;99.90;;;10.36;100.00;101578.94;5061319;28;20060;-82
2023/05/08 06:49:59;;;;;;;13.65;10.55;;;10.60;99.90;;;10.58;100.00;101587.16;5063105;28;20400;-81
2023/05/08 06:52:25;;;;;;;11.73;9.93;;;10.80;99.90;;;10.60;99.17;101580.47;5055464;28;20032;-80
2023/05/08 06:54:51;;;;;;;14.40;10.45;;;10.90;99.90;;;10.75;100.00;101585.03;5055656;28;20496;-81
2023/05/08 06:57:16;;;;;;;13.50;10.98;;;11.00;99.90;;;10.68;98.70;101590.44;5053509;28;20028;-81
2023/05/08 06:59:42;;;;;;;12.38;9.70;;;11.00;99.90;;;10.87;98.76;101582.59;5065037;28;20480;-82
2023/05/08 07:02:11;;;;;;;12.05;9.52;;;11.10;99.90;;;11.03;97.86;101574.16;5054836;28;20480;-82
2023/05/08 07:04:37;;;;;;;12.75;9.70;;;11.30;99.90;;;11.25;97.60;101576.84;5061279;28;20044;-81
2023/05/08 07:07:05;;;;;;;11.88;9.45;;;11.40;99.90;;;11.43;96.00;101572.78;5058640;28;20040;-82
2023/05/08 07:09:31;;;;;;;12.40;9.90;;;11.70;99.90;;;11.44;94.69;101575.28;5064787;28;20040;-81
2023/05/08 07:11:56;;;;;;;11.65;9.27;;;11.70;99.90;;;11.35;92.11;101555.47;5067127;28;20044;-81
2023/05/08 07:14:22;;;;;;;10.88;9.35;;;11.80;99.90;;;11.41;91.76;101580.34;5068681;28;20521;-81
2023/05/08 07:16:48;;;;;;;14.18;10.27;;;11.80;99.90;;;11.47;93.87;101580.34;5069005;28;20057;-82
2023/05/08 07:19:13;;;;;;;17.23;10.73;;;11.80;99.90;;;11.45;91.88;101584.34;5069023;28;20511;-82
2023/05/08 07:21:39;;;;;;;15.43;10.73;;;11.80;99.90;;;11.33;90.11;101581.31;5060111;28;20036;-81
2023/05/08 07:24:05;;;;;;;16.55;10.65;;;11.80;99.90;;;11.49;91.28;101580.16;5066946;28;20047;-81
2023/05/08 07:26:31;;;;;;;16.20;10.27;;;11.90;99.90;;;11.58;91.25;101580.84;5062566;28;20434;-81
2023/05/08 07:28:58;;;;;;;12.05;9.80;;;11.90;99.90;;;11.71;90.66;101567.25;5053892;28;20048;-82
2023/05/08 07:31:25;;;;;;;13.87;10.53;;;12.10;99.90;;;12.00;87.59;101575.41;5063285;28;20115;-81
2023/05/08 07:33:52;;;;;;;13.50;10.45;;;12.30;99.90;;;11.98;87.61;101569.28;5054840;28;20052;-82
2023/05/08 07:36:18;;;;;;;14.23;10.23;;;12.30;99.90;;;12.08;87.29;101575.25;5061550;28;20090;-81
2023/05/08 07:38:43;;;;;;;12.77;10.10;;;12.40;99.90;;;12.19;88.45;101569.16;5053432;28;20289;-81
2023/05/08 07:41:10;;;;;;;12.90;9.25;;;12.50;99.90;;;12.20;87.86;101575.50;5054783;28;20044;-80
2023/05/08 07:43:36;;;;;;;12.40;9.60;;;12.50;99.90;;;12.21;85.86;101569.84;5062900;28;20041;-81
2023/05/08 07:46:02;;;;;;;10.43;9.30;;;12.60;99.90;;;12.25;83.64;101567.50;5067477;28;20064;-81
2023/05/08 07:48:27;;;;;;;12.43;9.77;;;12.70;99.90;;;12.28;84.06;101564.38;5067154;28;20035;-81
2023/05/08 07:50:53;;;;;;;13.88;9.38;;;12.70;99.90;;;12.41;85.20;101571.75;5073470;28;20067;-80
2023/05/08 07:53:19;;;;;;;11.98;9.57;;;12.80;99.90;;;12.72;85.21;101558.56;5068281;28;20028;-80
2023/05/08 07:55:44;;;;;;;12.10;9.50;;;13.00;99.90;;;12.90;82.67;101555.22;5062224;28;20389;-82
2023/05/08 07:58:10;;;;;;;10.43;8.80;;;13.30;99.90;;;12.90;80.86;101560.69;5063569;28;20040;-82
2023/05/08 08:00:36;;;;;;;11.90;8.48;;;13.30;99.90;;;13.01;80.63;101565.53;5068087;28;20163;-80
2023/05/08 08:03:02;;;;;;;12.50;9.35;;;13.40;99.90;;;12.77;80.48;101562.38;5058383;28;20037;-80
2023/05/08 08:05:28;;;;;;;10.90;9.18;;;13.30;99.90;;;13.01;80.24;101561.94;5056875;28;20040;-81
2023/05/08 08:07:54;;;;;;;14.57;9.27;;;13.40;99.90;;;13.23;80.64;101554.34;5061833;28;20041;-79
2023/05/08 08:10:20;;;;;;;10.13;8.68;;;13.60;99.90;;;13.44;77.35;101571.63;5066813;28;20043;-81
2023/05/08 08:12:46;;;;;;;12.38;9.02;;;13.70;99.90;;;13.65;80.34;101567.78;5068813;28;20097;-82
2023/05/08 08:15:11;;;;;;;10.70;8.85;;;13.80;99.90;;;13.83;78.01;101569.88;5064648;28;20044;-80
2023/05/08 08:17:37;;;;;;;12.32;9.50;;;14.00;99.90;;;13.93;77.57;101575.72;5059335;28;20108;-81
2023/05/08 08:20:03;;;;;;;11.60;9.00;;;14.10;99.90;;;14.20;77.19;101574.78;5066993;28;20090;-80
2023/05/08 08:22:29;;;;;;;12.70;9.30;;;14.40;99.90;;;14.00;76.18;101570.22;5066553;28;20460;-81
2023/05/08 08:24:55;;;;;;;11.32;8.65;;;14.40;99.90;;;14.34;77.14;101570.88;5068047;28;20036;-81
2023/05/08 08:27:21;;;;;;;11.48;9.23;;;14.60;99.90;;;14.23;72.43;101564.19;5069073;28;20450;-81
2023/05/08 08:29:47;;;;;;;12.30;8.68;;;14.60;99.90;;;14.33;72.90;101557.41;5064348;28;20056;-80
2023/05/08 08:32:12;;;;;;;11.73;8.57;;;14.70;99.90;;;14.24;69.92;101567.78;5063046;28;20139;-79
2023/05/08 08:34:38;;;;;;;10.82;9.15;;;14.70;99.90;;;14.55;73.74;101566.13;5064477;28;20047;-80
2023/05/08 08:37:05;;;;;;;10.80;9.55;;;14.80;99.90;;;15.06;73.08;101567.03;5065555;28;20025;-80
2023/05/08 08:39:35;;;;;;;12.30;9.00;;;15.10;99.90;;;14.85;67.82;101546.28;5081823;28;20138;-79
2023/05/08 08:42:02;;;;;;;11.98;8.73;;;15.20;99.90;;;14.96;69.43;101553.81;5084861;28;20305;-78
2023/05/08 08:44:29;;;;;;;11.77;9.27;;;15.20;99.90;;;15.10;68.41;101546.28;5078623;28;20040;-77
2023/05/08 08:46:58;;;;;;;10.52;8.80;;;15.30;99.90;;;15.23;69.01;101547.25;5081025;28;20025;-79
2023/05/08 08:49:30;;;;;;;11.18;9.02;;;15.40;99.90;;;15.20;66.96;101545.78;5081070;28;20043;-79
2023/05/08 08:52:10;;;;;;;11.40;8.85;;;15.40;99.90;;;15.47;69.26;101551.00;5057842;28;20048;-79
2023/05/08 08:54:40;;;;;;;10.45;8.80;;;15.60;99.90;;;15.20;65.33;101540.28;5062307;28;20032;-79
2023/05/08 08:57:07;;;;;;;12.10;9.52;;;15.60;99.90;;;15.69;68.28;101550.56;5060226;28;20087;-79
2023/05/08 08:59:37;;;;;;;11.23;8.90;;;15.80;99.90;;;15.98;67.41;101550.88;5058833;28;20033;-79
2023/05/08 09:02:11;;;;;;;11.27;9.20;;;;;;;16.22;65.86;101546.34;5063828;28;20050;-79
2023/05/08 09:04:39;;;;;;;12.63;8.23;;;16.00;99.90;;;15.81;63.61;101534.13;5052663;28;20036;-79
2023/05/08 09:07:07;;;;;;;11.73;9.13;;;16.20;99.90;;;15.86;61.92;101531.50;5051947;28;20068;-78
2023/05/08 09:09:39;;;;;;;11.15;9.35;;;16.20;99.90;;;16.06;61.86;101530.47;5057233;28;20083;-78
2023/05/08 09:12:06;;;;;;;10.15;8.20;;;16.30;99.90;;;16.37;62.04;101528.53;5059360;28;20481;-79
2023/05/08 09:14:32;;;;;;;10.35;7.95;;;16.50;99.90;;;16.36;59.80;101513.09;5056516;28;20029;-79
2023/05/08 09:16:58;;;;;;;11.93;8.20;;;16.60;99.90;;;16.59;60.58;101520.59;5039590;28;20530;-78
2023/05/08 09:19:25;;;;;;;9.65;7.53;;;16.80;99.90;;;16.56;60.57;101518.28;5052380;28;20029;-79
2023/05/08 09:21:53;;;;;;;10.50;8.13;;;16.90;99.90;;;16.64;59.46;101500.59;5059659;28;20127;-79
2023/05/08 09:24:19;;;;;;;9.73;7.75;;;17.10;99.90;;;16.64;58.55;101512.47;5064290;28;20036;-79
2023/05/08 09:26:45;;;;;;;9.05;7.55;;;17.00;99.90;;;16.91;60.01;101508.41;5061093;28;20381;-80
2023/05/08 09:29:17;;;;;;;10.30;7.50;;;17.20;99.90;;;17.05;58.26;101503.53;5058769;28;20060;-80
2023/05/08 09:31:49;;;;;;;12.38;7.60;;;17.30;99.90;;;17.13;57.97;101511.47;5059912;28;20104;-80
2023/05/08 09:34:27;;;;;;;9.13;7.57;;;17.40;99.90;;;17.30;56.76;101511.56;5052785;28;20037;-79
2023/05/08 09:37:15;;;;;;;9.43;7.30;;;17.50;99.90;;;17.46;57.17;101512.75;5042153;28;20037;-79
2023/05/08 09:39:42;;;;;;;11.48;7.35;;;17.70;99.90;;;17.79;55.48;101515.91;5052947;28;20048;-79
2023/05/08 09:42:08;;;;;;;7.95;6.90;;;18.00;99.90;;;18.04;55.84;101507.34;5052202;28;20059;-79
2023/05/08 09:44:52;;;;;;;9.07;7.47;;;18.20;99.90;;;18.06;53.65;101507.09;5053289;28;20025;-80
2023/05/08 09:47:21;;;;;;;8.82;7.15;;;18.30;99.00;;;17.94;54.60;101515.38;5056045;28;20480;-79
2023/05/08 09:50:02;;;;;;;8.48;7.07;;;18.30;99.50;;;17.96;53.90;101513.22;5056478;28;20056;-79
2023/05/08 09:52:29;;;;;;;8.98;7.05;;;18.20;98.70;;;17.79;52.87;101486.38;5070929;28;20147;-79
2023/05/08 09:55:05;;;;;;;8.98;7.05;;;18.20;97.90;;;18.01;52.28;101496.78;5060864;28;20041;-79
2023/05/08 09:57:37;;;;;;;9.52;6.88;;;18.30;97.30;;;17.72;51.37;101499.50;5094141;28;20051;-78
2023/05/08 10:00:13;;;;;;;8.00;5.75;;;18.20;96.20;;;18.28;51.88;101504.47;5057652;28;20037;-79
2023/05/08 10:03:02;;;;;;;7.28;6.40;;;18.40;97.40;;;17.95;49.42;101501.31;5055517;28;20048;-82
2023/05/08 10:05:33;;;;;;;8.40;6.15;;;18.40;94.50;;;18.28;50.37;101506.38;5067693;28;20078;-80
2023/05/08 10:08:21;;;;;;;7.93;6.15;;;18.60;95.80;;;17.97;49.01;101499.16;5069505;28;20040;-80
2023/05/08 10:10:48;;;;;;;8.45;6.28;;;18.40;94.00;;;18.45;47.82;101489.84;5057921;28;20055;-79
2023/05/08 10:13:13;;;;;;;7.43;5.60;;;19.20;92.30;;;18.80;44.83;101464.72;5063221;28;20093;-79
2023/05/08 10:15:42;;;;;;;9.10;5.93;;;19.80;88.30;;;19.07;44.61;101472.34;5060048;28;20476;-79
2023/05/08 10:18:10;;;;;;;9.48;6.13;;;20.10;86.80;;;19.85;45.79;101478.84;5055738;28;20041;-78
2023/05/08 10:20:41;;;;;;;8.02;6.35;;;;;;;20.94;43.55;101477.13;5055335;28;20025;-82
2023/05/08 10:23:12;;;;;;;9.60;7.47;;;;;;;21.11;42.47;101460.34;5062877;28;20043;-81